sensor_id;sensor_type;location;lat;lon;timestamp;pressure;altitude;pressure_sealevel;temperature;humidity
73240;BME280;61452;40.054;4.110;2023-04-08T00:00:37;101826.38;;;16.94;55.56
73240;BME280;61452;40.054;4.110;2023-04-08T00:05:39;101817.41;;;16.96;55.37
73240;BME280;61452;40.054;4.110;2023-04-08T00:10:41;101815.72;;;16.95;55.38
73240;BME280;61452;40.054;4.110;2023-04-08T00:15:44;101818.34;;;16.95;55.43
73240;BME280;61452;40.054;4.110;2023-04-08T00:20:46;101827.25;;;16.94;55.43
73240;BME280;61452;40.054;4.110;2023-04-08T00:25:48;101833.47;;;16.93;55.18
73240;BME280;61452;40.054;4.110;2023-04-08T00:30:51;101826.47;;;16.92;55.34
73240;BME280;61452;40.054;4.110;2023-04-08T00:35:54;101815.00;;;16.92;55.44
73240;BME280;61452;40.054;4.110;2023-04-08T00:40:56;101814.06;;;16.93;55.37
73240;BME280;61452;40.054;4.110;2023-04-08T00:45:59;101806.97;;;16.93;55.37
73240;BME280;61452;40.054;4.110;2023-04-08T00:51:02;101817.66;;;16.92;55.47
73240;BME280;61452;40.054;4.110;2023-04-08T00:56:04;101800.09;;;16.91;55.35
73240;BME280;61452;40.054;4.110;2023-04-08T01:01:12;101799.03;;;16.93;55.19
73240;BME280;61452;40.054;4.110;2023-04-08T01:11:41;101799.97;;;16.92;55.14
73240;BME280;61452;40.054;4.110;2023-04-08T01:16:45;101791.28;;;16.90;55.27
73240;BME280;61452;40.054;4.110;2023-04-08T01:21:48;101789.56;;;16.89;55.35
73240;BME280;61452;40.054;4.110;2023-04-08T01:26:51;101780.69;;;16.90;55.26
73240;BME280;61452;40.054;4.110;2023-04-08T01:31:54;101780.56;;;16.92;55.33
73240;BME280;61452;40.054;4.110;2023-04-08T01:36:57;101782.34;;;16.91;55.40
73240;BME280;61452;40.054;4.110;2023-04-08T01:41:59;101782.47;;;16.90;55.48
73240;BME280;61452;40.054;4.110;2023-04-08T01:47:03;101782.56;;;16.88;55.43
73240;BME280;61452;40.054;4.110;2023-04-08T01:52:06;101774.41;;;16.91;55.17
73240;BME280;61452;40.054;4.110;2023-04-08T01:57:13;101777.16;;;16.90;55.22
73240;BME280;61452;40.054;4.110;2023-04-08T02:02:20;101780.69;;;16.90;55.18
73240;BME280;61452;40.054;4.110;2023-04-08T02:07:23;101779.91;;;16.88;55.38
73240;BME280;61452;40.054;4.110;2023-04-08T02:12:26;101773.84;;;16.86;55.33
73240;BME280;61452;40.054;4.110;2023-04-08T02:22:51;101781.63;;;16.89;55.45
73240;BME280;61452;40.054;4.110;2023-04-08T02:27:56;101781.63;;;16.89;55.34
73240;BME280;61452;40.054;4.110;2023-04-08T02:33:03;101788.03;;;16.85;55.62
73240;BME280;61452;40.054;4.110;2023-04-08T02:38:06;101790.66;;;16.85;55.41
73240;BME280;61452;40.054;4.110;2023-04-08T02:43:08;101785.47;;;16.84;55.28
73240;BME280;61452;40.054;4.110;2023-04-08T02:48:10;101789.06;;;16.83;55.33
73240;BME280;61452;40.054;4.110;2023-04-08T02:53:12;101770.44;;;16.84;55.14
73240;BME280;61452;40.054;4.110;2023-04-08T02:58:15;101770.31;;;16.86;55.28
73240;BME280;61452;40.054;4.110;2023-04-08T03:03:17;101773.94;;;16.85;55.39
73240;BME280;61452;40.054;4.110;2023-04-08T03:08:19;101768.72;;;16.83;55.53
73240;BME280;61452;40.054;4.110;2023-04-08T03:13:21;101765.22;;;16.83;55.40
73240;BME280;61452;40.054;4.110;2023-04-08T03:18:24;101767.78;;;16.84;55.36
73240;BME280;61452;40.054;4.110;2023-04-08T03:23:26;101763.34;;;16.85;55.18
73240;BME280;61452;40.054;4.110;2023-04-08T03:28:28;101762.50;;;16.84;55.18
73240;BME280;61452;40.054;4.110;2023-04-08T03:33:31;101751.97;;;16.83;55.35
73240;BME280;61452;40.054;4.110;2023-04-08T03:38:33;101755.47;;;16.83;55.19
73240;BME280;61452;40.054;4.110;2023-04-08T03:43:35;101761.53;;;16.85;55.15
73240;BME280;61452;40.054;4.110;2023-04-08T03:48:38;101758.13;;;16.83;55.30
73240;BME280;61452;40.054;4.110;2023-04-08T03:53:40;101750.25;;;16.82;55.39
73240;BME280;61452;40.054;4.110;2023-04-08T03:58:42;101753.94;;;16.79;55.45
73240;BME280;61452;40.054;4.110;2023-04-08T04:03:44;101742.47;;;16.79;55.36
73240;BME280;61452;40.054;4.110;2023-04-08T04:08:47;101735.59;;;16.76;55.33
73240;BME280;61452;40.054;4.110;2023-04-08T04:13:51;101742.59;;;16.77;55.21
73240;BME280;61452;40.054;4.110;2023-04-08T04:18:53;101734.66;;;16.77;55.04
73240;BME280;61452;40.054;4.110;2023-04-08T04:23:55;101730.00;;;16.81;55.16
73240;BME280;61452;40.054;4.110;2023-04-08T04:28:57;101730.19;;;16.78;55.22
73240;BME280;61452;40.054;4.110;2023-04-08T04:34:00;101729.44;;;16.76;55.43
73240;BME280;61452;40.054;4.110;2023-04-08T04:39:02;101731.22;;;16.75;55.38
73240;BME280;61452;40.054;4.110;2023-04-08T04:44:04;101737.47;;;16.74;55.35
73240;BME280;61452;40.054;4.110;2023-04-08T04:49:06;101729.44;;;16.76;55.31
73240;BME280;61452;40.054;4.110;2023-04-08T04:54:08;101719.78;;;16.75;55.25
73240;BME280;61452;40.054;4.110;2023-04-08T04:59:11;101726.00;;;16.74;55.18
73240;BME280;61452;40.054;4.110;2023-04-08T05:04:13;101720.63;;;16.75;55.06
73240;BME280;61452;40.054;4.110;2023-04-08T05:09:15;101721.47;;;16.76;55.00
73240;BME280;61452;40.054;4.110;2023-04-08T05:14:17;101732.94;;;16.76;55.14
73240;BME280;61452;40.054;4.110;2023-04-08T05:19:19;101728.66;;;16.74;55.26
73240;BME280;61452;40.054;4.110;2023-04-08T05:24:21;101736.59;;;16.74;55.32
73240;BME280;61452;40.054;4.110;2023-04-08T05:29:23;101730.38;;;16.75;55.18
73240;BME280;61452;40.054;4.110;2023-04-08T05:34:25;101728.56;;;16.75;55.07
73240;BME280;61452;40.054;4.110;2023-04-08T05:39:27;101732.06;;;16.76;55.15
73240;BME280;61452;40.054;4.110;2023-04-08T05:44:30;101732.25;;;16.73;55.23
73240;BME280;61452;40.054;4.110;2023-04-08T05:49:33;101746.47;;;16.72;55.13
73240;BME280;61452;40.054;4.110;2023-04-08T05:54:35;101742.97;;;16.71;55.15
73240;BME280;61452;40.054;4.110;2023-04-08T05:59:37;101746.53;;;16.70;55.22
73240;BME280;61452;40.054;4.110;2023-04-08T06:04:39;101749.13;;;16.72;54.89
73240;BME280;61452;40.054;4.110;2023-04-08T06:09:41;101744.66;;;16.72;55.21
73240;BME280;61452;40.054;4.110;2023-04-08T06:14:45;101751.00;;;16.70;55.13
73240;BME280;61452;40.054;4.110;2023-04-08T06:19:47;101757.06;;;16.72;55.28
73240;BME280;61452;40.054;4.110;2023-04-08T06:24:49;101759.78;;;16.70;55.06
73240;BME280;61452;40.054;4.110;2023-04-08T06:29:52;101773.88;;;16.71;54.89
73240;BME280;61452;40.054;4.110;2023-04-08T06:34:54;101757.50;;;16.64;54.95
73240;BME280;61452;40.054;4.110;2023-04-08T06:39:56;101778.34;;;16.70;54.98
73240;BME280;61452;40.054;4.110;2023-04-08T06:44:58;101780.22;;;16.68;55.17
73240;BME280;61452;40.054;4.110;2023-04-08T06:50:00;101778.34;;;16.70;55.24
73240;BME280;61452;40.054;4.110;2023-04-08T06:55:03;101776.63;;;16.69;55.08
73240;BME280;61452;40.054;4.110;2023-04-08T07:00:05;101791.50;;;16.72;55.22
73240;BME280;61452;40.054;4.110;2023-04-08T07:05:08;101790.72;;;16.70;55.24
73240;BME280;61452;40.054;4.110;2023-04-08T07:10:11;101794.31;;;16.69;55.24
73240;BME280;61452;40.054;4.110;2023-04-08T07:15:13;101800.47;;;16.69;55.20
73240;BME280;61452;40.054;4.110;2023-04-08T07:20:16;101796.09;;;16.68;55.04
73240;BME280;61452;40.054;4.110;2023-04-08T07:25:19;101792.59;;;16.68;55.11
73240;BME280;61452;40.054;4.110;2023-04-08T07:30:21;101799.81;;;16.66;55.01
73240;BME280;61452;40.054;4.110;2023-04-08T07:35:23;101796.97;;;16.69;55.16
73240;BME280;61452;40.054;4.110;2023-04-08T07:40:26;101796.09;;;16.68;55.25
73240;BME280;61452;40.054;4.110;2023-04-08T07:45:28;101802.44;;;16.66;55.25
73240;BME280;61452;40.054;4.110;2023-04-08T07:50:31;101802.44;;;16.66;55.17
73240;BME280;61452;40.054;4.110;2023-04-08T07:55:33;101802.25;;;16.69;55.13
73240;BME280;61452;40.054;4.110;2023-04-08T08:00:35;101814.56;;;16.70;55.13
73240;BME280;61452;40.054;4.110;2023-04-08T08:05:37;101817.28;;;16.68;55.38
73240;BME280;61452;40.054;4.110;2023-04-08T08:10:40;101822.69;;;16.67;55.30
73240;BME280;61452;40.054;4.110;2023-04-08T08:15:42;101827.03;;;16.68;55.44
73240;BME280;61452;40.054;4.110;2023-04-08T08:20:44;101827.16;;;16.66;55.45
73240;BME280;61452;40.054;4.110;2023-04-08T08:25:46;101834.91;;;16.69;55.53
73240;BME280;61452;40.054;4.110;2023-04-08T08:30:48;101832.34;;;16.68;55.71
73240;BME280;61452;40.054;4.110;2023-04-08T08:35:51;101843.03;;;16.66;55.84
73240;BME280;61452;40.054;4.110;2023-04-08T08:40:55;101837.75;;;16.66;55.89
73240;BME280;61452;40.054;4.110;2023-04-08T08:45:57;101839.34;;;16.69;55.40
73240;BME280;61452;40.054;4.110;2023-04-08T08:51:00;101849.00;;;16.70;55.48
73240;BME280;61452;40.054;4.110;2023-04-08T08:56:03;101849.16;;;16.67;55.65
73240;BME280;61452;40.054;4.110;2023-04-08T09:01:34;101843.97;;;16.65;55.59
73240;BME280;61452;40.054;4.110;2023-04-08T09:06:39;101842.06;;;16.67;55.80
73240;BME280;61452;40.054;4.110;2023-04-08T09:11:45;101851.00;;;16.66;55.89
73240;BME280;61452;40.054;4.110;2023-04-08T09:16:48;101847.47;;;16.66;55.68
73240;BME280;61452;40.054;4.110;2023-04-08T09:22:04;101846.53;;;16.67;55.65
73240;BME280;61452;40.054;4.110;2023-04-08T09:27:07;101847.22;;;16.70;55.50
73240;BME280;61452;40.054;4.110;2023-04-08T09:32:09;101849.94;;;16.69;55.67
73240;BME280;61452;40.054;4.110;2023-04-08T09:37:11;101832.91;;;16.57;55.61
73240;BME280;61452;40.054;4.110;2023-04-08T09:42:13;101857.13;;;16.67;55.57
73240;BME280;61452;40.054;4.110;2023-04-08T09:47:24;101853.63;;;16.66;55.62
73240;BME280;61452;40.054;4.110;2023-04-08T09:52:33;101854.47;;;16.67;56.03
73240;BME280;61452;40.054;4.110;2023-04-08T09:57:45;101843.78;;;16.68;55.61
73240;BME280;61452;40.054;4.110;2023-04-08T10:08:01;101853.44;;;16.69;55.81
73240;BME280;61452;40.054;4.110;2023-04-08T10:13:06;101857.03;;;16.68;55.68
73240;BME280;61452;40.054;4.110;2023-04-08T10:23:17;101857.03;;;16.68;55.55
73240;BME280;61452;40.054;4.110;2023-04-08T10:33:33;101864.91;;;16.70;56.03
73240;BME280;61452;40.054;4.110;2023-04-08T10:38:41;101864.81;;;16.71;55.95
73240;BME280;61452;40.054;4.110;2023-04-08T10:43:46;101860.38;;;16.72;56.20
73240;BME280;61452;40.054;4.110;2023-04-08T10:48:59;101868.31;;;16.72;56.17
73240;BME280;61452;40.054;4.110;2023-04-08T10:54:07;101879.78;;;16.72;56.15
73240;BME280;61452;40.054;4.110;2023-04-08T10:59:10;101863.88;;;16.72;55.99
73240;BME280;61452;40.054;4.110;2023-04-08T11:04:13;101866.44;;;16.74;56.07
73240;BME280;61452;40.054;4.110;2023-04-08T11:09:16;101861.13;;;16.74;56.27
73240;BME280;61452;40.054;4.110;2023-04-08T11:14:18;101863.78;;;16.74;56.73
73240;BME280;61452;40.054;4.110;2023-04-08T11:19:22;101864.81;;;16.71;56.67
73240;BME280;61452;40.054;4.110;2023-04-08T11:24:25;101867.28;;;16.74;56.56
73240;BME280;61452;40.054;4.110;2023-04-08T11:29:28;101862.84;;;16.75;56.58
73240;BME280;61452;40.054;4.110;2023-04-08T11:34:31;101879.59;;;16.75;56.95
73240;BME280;61452;40.054;4.110;2023-04-08T11:39:33;101877.03;;;16.74;57.06
73240;BME280;61452;40.054;4.110;2023-04-08T11:44:35;101869.06;;;16.74;57.18
73240;BME280;61452;40.054;4.110;2023-04-08T11:49:47;101869.94;;;16.74;57.04
73240;BME280;61452;40.054;4.110;2023-04-08T11:54:49;101858.31;;;16.77;57.12
73240;BME280;61452;40.054;4.110;2023-04-08T11:59:51;101864.47;;;16.77;57.34
73240;BME280;61452;40.054;4.110;2023-04-08T12:04:53;101860.13;;;16.76;57.80
73240;BME280;61452;40.054;4.110;2023-04-08T12:09:55;101861.03;;;16.75;57.82
73240;BME280;61452;40.054;4.110;2023-04-08T12:14:57;101857.38;;;16.78;57.51
73240;BME280;61452;40.054;4.110;2023-04-08T12:19:59;101857.38;;;16.78;57.54
73240;BME280;61452;40.054;4.110;2023-04-08T12:25:02;101853.75;;;16.79;57.65
73240;BME280;61452;40.054;4.110;2023-04-08T12:30:05;101856.41;;;16.79;58.00
73240;BME280;61452;40.054;4.110;2023-04-08T12:35:07;101851.97;;;16.79;57.73
73240;BME280;61452;40.054;4.110;2023-04-08T12:40:09;101851.88;;;16.81;57.67
73240;BME280;61452;40.054;4.110;2023-04-08T12:45:12;101843.84;;;16.82;57.93
73240;BME280;61452;40.054;4.110;2023-04-08T12:50:14;101845.66;;;16.82;57.90
73240;BME280;61452;40.054;4.110;2023-04-08T12:55:16;101848.47;;;16.79;58.33
73240;BME280;61452;40.054;4.110;2023-04-08T13:00:19;101844.78;;;16.81;58.04
73240;BME280;61452;40.054;4.110;2023-04-08T13:05:22;101848.31;;;16.82;57.99
73240;BME280;61452;40.054;4.110;2023-04-08T13:10:43;101848.22;;;16.83;57.90
73240;BME280;61452;40.054;4.110;2023-04-08T13:15:45;101846.44;;;16.84;58.08
73240;BME280;61452;40.054;4.110;2023-04-08T13:20:47;101837.63;;;16.83;58.17
73240;BME280;61452;40.054;4.110;2023-04-08T13:25:50;101839.34;;;16.84;58.00
73240;BME280;61452;40.054;4.110;2023-04-08T13:30:52;101841.88;;;16.86;57.71
73240;BME280;61452;40.054;4.110;2023-04-08T13:35:54;101839.22;;;16.86;57.59
73240;BME280;61452;40.054;4.110;2023-04-08T13:40:57;101836.56;;;16.86;57.68
73240;BME280;61452;40.054;4.110;2023-04-08T13:45:59;101835.63;;;16.87;57.88
73240;BME280;61452;40.054;4.110;2023-04-08T13:51:01;101829.47;;;16.86;58.02
73240;BME280;61452;40.054;4.110;2023-04-08T13:56:04;101835.63;;;16.87;57.77
73240;BME280;61452;40.054;4.110;2023-04-08T14:01:06;101837.44;;;16.86;57.61
73240;BME280;61452;40.054;4.110;2023-04-08T14:06:08;101833.84;;;16.87;57.59
73240;BME280;61452;40.054;4.110;2023-04-08T14:11:10;101838.19;;;16.88;57.75
73240;BME280;61452;40.054;4.110;2023-04-08T14:16:13;101837.34;;;16.88;57.89
73240;BME280;61452;40.054;4.110;2023-04-08T14:21:16;101842.56;;;16.89;57.50
73240;BME280;61452;40.054;4.110;2023-04-08T14:26:19;101837.28;;;16.89;57.42
73240;BME280;61452;40.054;4.110;2023-04-08T14:31:21;101846.94;;;16.90;57.39
73240;BME280;61452;40.054;4.110;2023-04-08T14:36:24;101849.59;;;16.90;57.41
73240;BME280;61452;40.054;4.110;2023-04-08T14:41:27;101860.06;;;16.92;57.19
73240;BME280;61452;40.054;4.110;2023-04-08T14:46:29;101850.44;;;16.91;57.16
73240;BME280;61452;40.054;4.110;2023-04-08T14:51:31;101850.44;;;16.91;57.03
73240;BME280;61452;40.054;4.110;2023-04-08T14:56:34;101852.97;;;16.92;56.98
73240;BME280;61452;40.054;4.110;2023-04-08T15:01:37;101840.66;;;16.91;57.06
73240;BME280;61452;40.054;4.110;2023-04-08T15:06:39;101845.03;;;16.92;57.09
73240;BME280;61452;40.054;4.110;2023-04-08T15:11:41;101850.25;;;16.94;56.95
73240;BME280;61452;40.054;4.110;2023-04-08T15:16:43;101844.09;;;16.93;56.59
73240;BME280;61452;40.054;4.110;2023-04-08T15:21:45;101851.19;;;16.93;56.66
73240;BME280;61452;40.054;4.110;2023-04-08T15:26:48;101851.09;;;16.94;56.61
73240;BME280;61452;40.054;4.110;2023-04-08T15:31:50;101852.81;;;16.95;56.49
73240;BME280;61452;40.054;4.110;2023-04-08T15:36:53;101857.19;;;16.96;56.44
73240;BME280;61452;40.054;4.110;2023-04-08T15:41:58;101852.81;;;16.95;56.31
73240;BME280;61452;40.054;4.110;2023-04-08T15:47:00;101858.84;;;16.97;56.21
73240;BME280;61452;40.054;4.110;2023-04-08T15:52:02;101861.63;;;16.96;56.32
73240;BME280;61452;40.054;4.110;2023-04-08T15:57:04;101861.63;;;16.96;56.37
73240;BME280;61452;40.054;4.110;2023-04-08T16:02:06;101858.84;;;16.97;56.21
73240;BME280;61452;40.054;4.110;2023-04-08T16:07:09;101866.91;;;16.96;56.08
73240;BME280;61452;40.054;4.110;2023-04-08T16:12:11;101870.31;;;16.98;56.15
73240;BME280;61452;40.054;4.110;2023-04-08T16:17:15;101865.78;;;17.00;55.98
73240;BME280;61452;40.054;4.110;2023-04-08T16:22:18;101864.06;;;16.99;55.99
73240;BME280;61452;40.054;4.110;2023-04-08T16:27:20;101864.94;;;16.99;56.04
73240;BME280;61452;40.054;4.110;2023-04-08T16:32:22;101869.28;;;17.01;56.19
73240;BME280;61452;40.054;4.110;2023-04-08T16:37:24;101868.44;;;17.00;56.12
73240;BME280;61452;40.054;4.110;2023-04-08T16:42:26;101865.63;;;17.03;56.02
73240;BME280;61452;40.054;4.110;2023-04-08T16:47:28;101869.09;;;17.04;55.96
73240;BME280;61452;40.054;4.110;2023-04-08T16:52:30;101871.75;;;17.04;56.07
73240;BME280;61452;40.054;4.110;2023-04-08T16:57:33;101871.75;;;17.04;56.05
73240;BME280;61452;40.054;4.110;2023-04-08T17:02:35;101877.06;;;17.04;56.18
73240;BME280;61452;40.054;4.110;2023-04-08T17:07:37;101877.84;;;17.06;55.95
73240;BME280;61452;40.054;4.110;2023-04-08T17:12:40;101881.41;;;17.05;55.98
73240;BME280;61452;40.054;4.110;2023-04-08T17:17:42;101883.06;;;17.07;55.87
73240;BME280;61452;40.054;4.110;2023-04-08T17:22:44;101885.69;;;17.07;55.89
73240;BME280;61452;40.054;4.110;2023-04-08T17:27:46;101884.75;;;17.08;55.94
73240;BME280;61452;40.054;4.110;2023-04-08T17:32:48;101890.06;;;17.08;56.03
73240;BME280;61452;40.054;4.110;2023-04-08T17:37:50;101891.78;;;17.09;55.82
73240;BME280;61452;40.054;4.110;2023-04-08T17:42:53;101889.22;;;17.08;55.83
73240;BME280;61452;40.054;4.110;2023-04-08T17:47:55;101885.63;;;17.09;55.66
73240;BME280;61452;40.054;4.110;2023-04-08T17:52:59;101883.91;;;17.08;55.51
73240;BME280;61452;40.054;4.110;2023-04-08T17:58:01;101898.88;;;17.09;55.44
73240;BME280;61452;40.054;4.110;2023-04-08T18:03:03;101886.72;;;17.05;55.41
73240;BME280;61452;40.054;4.110;2023-04-08T18:08:05;101902.28;;;17.11;55.55
73240;BME280;61452;40.054;4.110;2023-04-08T18:13:08;101898.69;;;17.12;55.58
73240;BME280;61452;40.054;4.110;2023-04-08T18:18:12;101894.22;;;17.12;55.59
73240;BME280;61452;40.054;4.110;2023-04-08T18:23:20;101904.84;;;17.12;55.56
73240;BME280;61452;40.054;4.110;2023-04-08T18:28:22;101909.19;;;17.13;55.58
73240;BME280;61452;40.054;4.110;2023-04-08T18:33:24;101916.31;;;17.13;55.58
73240;BME280;61452;40.054;4.110;2023-04-08T18:38:26;101918.09;;;17.12;55.59
73240;BME280;61452;40.054;4.110;2023-04-08T18:43:28;101927.69;;;17.15;55.56
73240;BME280;61452;40.054;4.110;2023-04-08T18:48:30;101932.13;;;17.14;55.60
73240;BME280;61452;40.054;4.110;2023-04-08T18:53:33;101927.75;;;17.13;55.53
73240;BME280;61452;40.054;4.110;2023-04-08T18:58:35;101932.13;;;17.14;55.62
73240;BME280;61452;40.054;4.110;2023-04-08T19:03:38;101949.06;;;17.12;55.56
73240;BME280;61452;40.054;4.110;2023-04-08T19:08:40;101946.31;;;17.13;55.49
73240;BME280;61452;40.054;4.110;2023-04-08T19:13:42;101945.72;;;17.08;55.30
73240;BME280;61452;40.054;4.110;2023-04-08T19:18:44;101963.94;;;17.14;55.33
73240;BME280;61452;40.054;4.110;2023-04-08T19:23:46;101962.22;;;17.13;55.27
73240;BME280;61452;40.054;4.110;2023-04-08T19:28:50;101974.63;;;17.13;55.48
73240;BME280;61452;40.054;4.110;2023-04-08T19:33:52;101986.09;;;17.13;55.32
73240;BME280;61452;40.054;4.110;2023-04-08T19:38:54;101994.81;;;17.15;55.42
73240;BME280;61452;40.054;4.110;2023-04-08T19:43:56;102009.94;;;17.13;55.33
73240;BME280;61452;40.054;4.110;2023-04-08T19:48:59;102013.38;;;17.15;55.38
73240;BME280;61452;40.054;4.110;2023-04-08T19:54:01;102017.81;;;17.15;55.29
73240;BME280;61452;40.054;4.110;2023-04-08T19:59:03;102017.81;;;17.15;55.29
73240;BME280;61452;40.054;4.110;2023-04-08T20:04:07;102028.44;;;17.15;55.31
73240;BME280;61452;40.054;4.110;2023-04-08T20:09:10;102027.56;;;17.14;55.33
73240;BME280;61452;40.054;4.110;2023-04-08T20:14:12;102028.44;;;17.15;55.32
73240;BME280;61452;40.054;4.110;2023-04-08T20:19:14;102033.72;;;17.15;55.31
73240;BME280;61452;40.054;4.110;2023-04-08T20:24:16;102041.69;;;17.15;55.15
73240;BME280;61452;40.054;4.110;2023-04-08T20:29:18;102032.88;;;17.14;55.23
73240;BME280;61452;40.054;4.110;2023-04-08T20:34:20;102017.47;;;17.05;55.50
73240;BME280;61452;40.054;4.110;2023-04-08T20:39:22;102030.22;;;17.14;55.00
73240;BME280;61452;40.054;4.110;2023-04-08T20:44:30;102029.44;;;17.12;54.98
73240;BME280;61452;40.054;4.110;2023-04-08T20:49:32;102032.94;;;17.13;54.96
73240;BME280;61452;40.054;4.110;2023-04-08T20:54:35;102017.47;;;17.05;55.24
73240;BME280;61452;40.054;4.110;2023-04-08T20:59:37;102011.31;;;17.05;55.33
73240;BME280;61452;40.054;4.110;2023-04-08T21:04:40;102024.91;;;17.14;54.86
73240;BME280;61452;40.054;4.110;2023-04-08T21:09:42;102033.72;;;17.15;54.91
73240;BME280;61452;40.054;4.110;2023-04-08T21:14:44;102035.53;;;17.14;54.92
73240;BME280;61452;40.054;4.110;2023-04-08T21:19:46;102032.09;;;17.12;55.10
73240;BME280;61452;40.054;4.110;2023-04-08T21:24:48;102031.16;;;17.13;55.22
73240;BME280;61452;40.054;4.110;2023-04-08T21:29:51;102029.28;;;17.15;54.85
73240;BME280;61452;40.054;4.110;2023-04-08T21:34:53;102017.81;;;17.15;54.95
73240;BME280;61452;40.054;4.110;2023-04-08T21:39:55;102026.63;;;17.15;54.84
73240;BME280;61452;40.054;4.110;2023-04-08T21:44:58;102026.88;;;17.11;55.12
73240;BME280;61452;40.054;4.110;2023-04-08T21:50:00;102027.72;;;17.11;55.10
73240;BME280;61452;40.054;4.110;2023-04-08T21:55:03;102028.59;;;17.12;54.87
73240;BME280;61452;40.054;4.110;2023-04-08T22:00:06;102030.22;;;17.14;54.96
73240;BME280;61452;40.054;4.110;2023-04-08T22:05:16;102028.59;;;17.12;54.99
73240;BME280;61452;40.054;4.110;2023-04-08T22:10:19;102025.06;;;17.11;54.88
73240;BME280;61452;40.054;4.110;2023-04-08T22:15:21;102032.94;;;17.13;54.84
73240;BME280;61452;40.054;4.110;2023-04-08T22:20:23;102031.94;;;17.15;54.92
73240;BME280;61452;40.054;4.110;2023-04-08T22:25:25;102034.47;;;17.17;54.82
73240;BME280;61452;40.054;4.110;2023-04-08T22:30:27;102035.69;;;17.11;55.11
73240;BME280;61452;40.054;4.110;2023-04-08T22:35:30;102041.84;;;17.12;55.12
73240;BME280;61452;40.054;4.110;2023-04-08T22:40:35;102039.09;;;17.13;54.68
73240;BME280;61452;40.054;4.110;2023-04-08T22:45:37;102038.91;;;17.16;54.70
73240;BME280;61452;40.054;4.110;2023-04-08T22:50:40;102039.88;;;17.15;54.81
73240;BME280;61452;40.054;4.110;2023-04-08T22:55:43;102039.19;;;17.12;54.89
73240;BME280;61452;40.054;4.110;2023-04-08T23:00:45;102033.38;;;17.05;54.82
73240;BME280;61452;40.054;4.110;2023-04-08T23:05:47;102038.41;;;17.10;54.77
73240;BME280;61452;40.054;4.110;2023-04-08T23:10:49;102045.34;;;17.12;54.75
73240;BME280;61452;40.054;4.110;2023-04-08T23:15:51;102044.50;;;17.12;54.72
73240;BME280;61452;40.054;4.110;2023-04-08T23:20:55;102047.22;;;17.10;54.98
73240;BME280;61452;40.054;4.110;2023-04-08T23:25:57;102053.38;;;17.11;54.90
73240;BME280;61452;40.054;4.110;2023-04-08T23:31:02;102048.00;;;17.12;54.71
73240;BME280;61452;40.054;4.110;2023-04-08T23:36:08;102044.41;;;17.13;54.46
73240;BME280;61452;40.054;4.110;2023-04-08T23:41:11;102053.31;;;17.12;54.65
73240;BME280;61452;40.054;4.110;2023-04-08T23:46:13;102052.72;;;17.07;54.82
73240;BME280;61452;40.054;4.110;2023-04-08T23:51:15;102048.25;;;17.08;54.74
73240;BME280;61452;40.054;4.110;2023-04-08T23:56:17;102049.97;;;17.09;54.44
